createdAt,value
2019-05-25T00:00:45.297Z,0.00
2019-05-25T00:01:44.260Z,0.00
2019-05-25T00:02:44.328Z,0.00
2019-05-25T00:03:44.289Z,0.00
2019-05-25T00:04:44.310Z,0.00
2019-05-25T00:05:44.197Z,0.00
2019-05-25T00:06:44.277Z,0.00
2019-05-25T00:07:44.178Z,0.00
2019-05-25T00:08:44.210Z,0.00
2019-05-25T00:09:44.172Z,0.00
2019-05-25T00:10:44.140Z,0.00
2019-05-25T00:11:44.131Z,0.00
2019-05-25T00:12:44.184Z,0.00
2019-05-25T00:13:44.145Z,0.00
2019-05-25T00:14:44.174Z,0.00
2019-05-25T00:15:44.175Z,0.00
2019-05-25T00:16:44.163Z,0.00
2019-05-25T00:17:44.074Z,0.00
2019-05-25T00:18:44.094Z,0.00
2019-05-25T00:19:44.067Z,0.00
2019-05-25T00:20:44.144Z,0.00
2019-05-25T00:21:44.030Z,0.00
2019-05-25T00:22:44.066Z,0.00
2019-05-25T00:23:43.998Z,0.00
2019-05-25T00:24:44.038Z,0.00
2019-05-25T00:25:43.979Z,0.00
2019-05-25T00:26:43.949Z,0.00
2019-05-25T00:27:43.949Z,0.00
2019-05-25T00:28:43.970Z,0.00
2019-05-25T00:29:43.951Z,0.00
2019-05-25T00:30:44.011Z,0.00
2019-05-25T00:31:43.923Z,0.00
2019-05-25T00:32:43.943Z,0.00
2019-05-25T00:33:43.896Z,0.00
2019-05-25T00:34:43.934Z,0.00
2019-05-25T00:35:43.875Z,0.00
2019-05-25T00:36:43.927Z,0.00
2019-05-25T00:37:43.858Z,0.00
2019-05-25T00:38:43.853Z,0.00
2019-05-25T00:39:43.839Z,0.00
2019-05-25T00:40:43.888Z,0.00
2019-05-25T00:41:43.803Z,0.00
2019-05-25T00:42:43.788Z,0.00
2019-05-25T00:43:43.899Z,0.00
2019-05-25T00:44:43.781Z,0.00
2019-05-25T00:45:44.850Z,0.00
2019-05-25T00:46:43.740Z,0.00
2019-05-25T00:47:43.734Z,0.00
2019-05-25T00:48:43.842Z,0.00
2019-05-25T00:49:43.735Z,0.00
2019-05-25T00:50:43.775Z,0.00
2019-05-25T00:51:43.694Z,0.00
2019-05-25T00:52:43.684Z,0.00
2019-05-25T00:53:43.677Z,0.00
2019-05-25T00:54:43.696Z,0.00
2019-05-25T00:55:43.656Z,0.00
2019-05-25T00:56:43.676Z,0.00
2019-05-25T00:57:43.616Z,0.00
2019-05-25T00:58:43.610Z,0.00
2019-05-25T00:59:43.729Z,0.00
2019-05-25T01:00:43.591Z,0.00
2019-05-25T01:01:43.622Z,0.00
2019-05-25T01:02:43.579Z,0.00
2019-05-25T01:03:43.551Z,0.00
2019-05-25T01:04:43.565Z,0.00
2019-05-25T01:05:43.602Z,0.00
2019-05-25T01:06:43.533Z,0.00
2019-05-25T01:07:43.633Z,0.00
2019-05-25T01:08:43.493Z,0.00
2019-05-25T01:09:43.624Z,0.00
2019-05-25T01:10:43.484Z,0.00
2019-05-25T01:11:43.505Z,0.00
2019-05-25T01:12:43.465Z,0.00
2019-05-25T01:13:43.536Z,0.00
2019-05-25T01:14:43.438Z,0.00
2019-05-25T01:15:43.517Z,0.00
2019-05-25T01:16:43.422Z,0.00
2019-05-25T01:17:43.514Z,0.00
2019-05-25T01:18:43.389Z,0.00
2019-05-25T01:19:43.381Z,0.00
2019-05-25T01:20:43.461Z,0.00
2019-05-25T01:21:43.354Z,0.00
2019-05-25T01:22:44.372Z,0.00
2019-05-25T01:23:43.343Z,0.00
2019-05-25T01:24:44.919Z,0.00
2019-05-25T01:25:43.414Z,0.00
2019-05-25T01:26:43.303Z,0.00
2019-05-25T01:27:43.397Z,0.00
2019-05-25T01:28:43.285Z,0.00
2019-05-25T01:29:43.277Z,0.00
2019-05-25T01:30:43.266Z,0.00
2019-05-25T01:31:44.288Z,0.00
2019-05-25T01:32:43.229Z,0.00
2019-05-25T01:33:43.297Z,0.00
2019-05-25T01:34:43.233Z,0.00
2019-05-25T01:35:43.285Z,0.00
2019-05-25T01:36:43.190Z,0.00
2019-05-25T01:37:43.343Z,0.00
2019-05-25T01:38:43.160Z,0.00
2019-05-25T01:39:43.210Z,0.00
2019-05-25T01:40:43.222Z,0.00
2019-05-25T01:41:43.141Z,0.00
2019-05-25T01:42:43.214Z,0.00
2019-05-25T01:43:43.112Z,0.00
2019-05-25T01:44:43.154Z,0.00
2019-05-25T01:45:43.185Z,0.00
2019-05-25T01:46:43.088Z,0.00
2019-05-25T01:47:43.155Z,0.00
2019-05-25T01:48:43.071Z,0.00
2019-05-25T01:49:44.117Z,0.00
2019-05-25T01:50:43.046Z,0.00
2019-05-25T01:51:43.129Z,0.00
2019-05-25T01:52:43.009Z,0.00
2019-05-25T01:53:43.063Z,0.00
2019-05-25T01:54:58.591Z,0.00
2019-05-25T01:55:43.990Z,0.00
2019-05-25T01:56:42.960Z,0.00
2019-05-25T01:57:43.030Z,0.00
2019-05-25T01:58:42.951Z,0.00
2019-05-25T01:59:42.971Z,0.00
2019-05-25T02:00:42.942Z,0.00
2019-05-25T02:01:42.913Z,0.00
2019-05-25T02:02:42.973Z,0.00
2019-05-25T02:03:42.895Z,0.00
2019-05-25T02:04:42.916Z,0.00
2019-05-25T02:05:42.887Z,0.00
2019-05-25T02:06:42.846Z,0.00
2019-05-25T02:07:42.836Z,0.00
2019-05-25T02:08:43.918Z,0.00
2019-05-25T02:09:42.810Z,0.00
2019-05-25T02:10:42.860Z,0.00
2019-05-25T02:11:42.888Z,0.00
2019-05-25T02:12:42.779Z,0.00
2019-05-25T02:13:42.819Z,0.00
2019-05-25T02:14:42.766Z,0.00
2019-05-25T02:15:42.803Z,0.00
2019-05-25T02:16:42.742Z,0.00
2019-05-25T02:17:42.803Z,0.00
2019-05-25T02:18:45.545Z,0.00
2019-05-25T02:19:42.733Z,0.00
2019-05-25T02:20:42.723Z,0.00
2019-05-25T02:21:42.773Z,0.00
2019-05-25T02:22:42.685Z,0.00
2019-05-25T02:23:42.716Z,0.00
2019-05-25T02:24:42.658Z,0.00
2019-05-25T02:25:42.902Z,0.00
2019-05-25T02:26:42.632Z,0.00
2019-05-25T02:27:42.619Z,0.00
2019-05-25T02:28:42.609Z,0.00
2019-05-25T02:29:42.625Z,0.00
2019-05-25T02:30:42.582Z,0.00
2019-05-25T02:31:42.690Z,0.00
2019-05-25T02:32:42.550Z,0.00
2019-05-25T02:33:42.591Z,0.00
2019-05-25T02:34:42.552Z,0.00
2019-05-25T02:35:42.621Z,0.00
2019-05-25T02:36:42.542Z,0.00
2019-05-25T02:37:42.564Z,0.00
2019-05-25T02:38:42.503Z,0.00
2019-05-25T02:39:42.605Z,0.00
2019-05-25T02:40:42.484Z,0.00
2019-05-25T02:41:42.575Z,0.00
2019-05-25T02:42:42.465Z,0.00
2019-05-25T02:43:42.436Z,4.00
2019-05-25T02:44:42.426Z,4.00
2019-05-25T02:45:42.498Z,4.00
2019-05-25T02:46:42.418Z,4.00
2019-05-25T02:47:42.438Z,4.00
2019-05-25T02:48:42.379Z,8.00
2019-05-25T02:49:42.479Z,4.00
2019-05-25T02:50:42.362Z,8.00
2019-05-25T02:51:42.451Z,8.00
2019-05-25T02:52:42.341Z,8.00
2019-05-25T02:53:42.353Z,8.00
2019-05-25T02:54:42.422Z,12.00
2019-05-25T02:55:42.313Z,16.00
2019-05-25T02:56:42.403Z,16.00
2019-05-25T02:57:42.293Z,12.00
2019-05-25T02:58:42.405Z,16.00
2019-05-25T02:59:42.355Z,20.00
2019-05-25T03:00:42.245Z,24.00
2019-05-25T03:01:42.336Z,24.00
2019-05-25T03:02:42.281Z,28.00
2019-05-25T03:03:42.327Z,28.00
2019-05-25T03:04:42.198Z,36.00
2019-05-25T03:05:42.251Z,40.00
2019-05-25T03:06:42.280Z,44.00
2019-05-25T03:07:42.170Z,52.00
2019-05-25T03:08:42.270Z,60.00
2019-05-25T03:09:42.150Z,64.00
2019-05-25T03:10:42.130Z,72.00
2019-05-25T03:11:42.279Z,80.00
2019-05-25T03:12:42.122Z,92.00
2019-05-25T03:13:42.213Z,104.00
2019-05-25T03:14:42.103Z,112.00
2019-05-25T03:15:42.098Z,124.00
2019-05-25T03:16:42.097Z,132.00
2019-05-25T03:17:42.092Z,144.00
2019-05-25T03:18:42.047Z,152.00
2019-05-25T03:19:42.116Z,168.00
2019-05-25T03:20:42.051Z,176.00
2019-05-25T03:21:42.097Z,188.00
2019-05-25T03:22:41.998Z,200.00
2019-05-25T03:23:42.090Z,212.00
2019-05-25T03:24:41.979Z,228.00
2019-05-25T03:25:49.563Z,244.00
2019-05-25T03:26:42.969Z,264.00
2019-05-25T03:27:42.061Z,288.00
2019-05-25T03:28:41.940Z,308.00
2019-05-25T03:29:42.002Z,324.00
2019-05-25T03:30:41.925Z,340.00
2019-05-25T03:31:41.933Z,364.00
2019-05-25T03:32:42.018Z,388.00
2019-05-25T03:33:41.902Z,412.00
2019-05-25T03:34:41.976Z,444.00
2019-05-25T03:35:41.863Z,472.00
2019-05-25T03:36:41.876Z,500.00
2019-05-25T03:37:41.837Z,532.00
2019-05-25T03:38:41.906Z,572.00
2019-05-25T03:39:41.807Z,604.00
2019-05-25T03:40:41.848Z,636.00
2019-05-25T03:41:41.820Z,656.00
2019-05-25T03:42:41.888Z,668.00
2019-05-25T03:43:41.769Z,676.00
2019-05-25T03:44:41.821Z,692.00
2019-05-25T03:45:41.750Z,716.00
2019-05-25T03:46:41.763Z,740.00
2019-05-25T03:47:41.742Z,760.00
2019-05-25T03:48:41.791Z,772.00
2019-05-25T03:49:41.769Z,768.00
2019-05-25T03:50:41.735Z,772.00
2019-05-25T03:51:41.688Z,796.00
2019-05-25T03:52:41.702Z,808.00
2019-05-25T03:53:41.735Z,824.00
2019-05-25T03:54:41.659Z,852.00
2019-05-25T03:55:42.685Z,892.00
2019-05-25T03:56:41.626Z,916.00
2019-05-25T03:57:41.747Z,952.00
2019-05-25T03:58:41.597Z,1004.00
2019-05-25T03:59:41.637Z,1004.00
2019-05-25T04:00:41.558Z,992.00
2019-05-25T04:01:42.599Z,1052.00
2019-05-25T04:02:41.628Z,1128.00
2019-05-25T04:03:41.619Z,1156.00
2019-05-25T04:04:41.531Z,1164.00
2019-05-25T04:05:41.552Z,1160.00
2019-05-25T04:06:41.523Z,1148.00
2019-05-25T04:07:41.528Z,1128.00
2019-05-25T04:08:41.503Z,1132.00
2019-05-25T04:09:41.524Z,1160.00
2019-05-25T04:10:41.475Z,1216.00
2019-05-25T04:11:41.565Z,1272.00
2019-05-25T04:12:41.468Z,1380.00
2019-05-25T04:13:41.498Z,1488.00
2019-05-25T04:14:41.449Z,1568.00
2019-05-25T04:15:41.427Z,1620.00
2019-05-25T04:16:41.417Z,1644.00
2019-05-25T04:17:41.413Z,1632.00
2019-05-25T04:18:41.379Z,1592.00
2019-05-25T04:19:41.399Z,1556.00
2019-05-25T04:20:41.362Z,1548.00
2019-05-25T04:21:41.440Z,1600.00
2019-05-25T04:22:41.340Z,1708.00
2019-05-25T04:23:41.381Z,1840.00
2019-05-25T04:24:41.322Z,1992.00
2019-05-25T04:25:41.413Z,2152.00
2019-05-25T04:26:41.302Z,2332.00
2019-05-25T04:27:41.404Z,2516.00
2019-05-25T04:28:41.278Z,2668.00
2019-05-25T04:29:41.294Z,2760.00
2019-05-25T04:30:41.304Z,2816.00
2019-05-25T04:31:41.316Z,2852.00
2019-05-25T04:32:41.236Z,2912.00
2019-05-25T04:33:41.216Z,2980.00
2019-05-25T04:34:41.237Z,3072.00
2019-05-25T04:35:41.189Z,3156.00
2019-05-25T04:36:41.263Z,3248.00
2019-05-25T04:37:41.194Z,3348.00
2019-05-25T04:38:41.177Z,3468.00
2019-05-25T04:39:41.140Z,3604.00
2019-05-25T04:40:41.240Z,3728.00
2019-05-25T04:41:41.131Z,3800.00
2019-05-25T04:42:42.255Z,3844.00
2019-05-25T04:43:41.113Z,3880.00
2019-05-25T04:44:41.213Z,3928.00
2019-05-25T04:45:41.083Z,3996.00
2019-05-25T04:46:41.153Z,4072.00
2019-05-25T04:47:41.075Z,4128.00
2019-05-25T04:48:41.074Z,4156.00
2019-05-25T04:49:41.055Z,4168.00
2019-05-25T04:50:41.128Z,4164.00
2019-05-25T04:51:41.017Z,4172.00
2019-05-25T04:52:42.118Z,4212.00
2019-05-25T04:53:41.008Z,4288.00
2019-05-25T04:54:40.978Z,4380.00
2019-05-25T04:55:40.971Z,4460.00
2019-05-25T04:56:41.030Z,4520.00
2019-05-25T04:57:40.961Z,4588.00
2019-05-25T04:58:40.960Z,4712.00
2019-05-25T04:59:40.931Z,4808.00
2019-05-25T05:00:42.947Z,4884.00
2019-05-25T05:01:40.912Z,5020.00
2019-05-25T05:02:40.992Z,5116.00
2019-05-25T05:03:40.886Z,5160.00
2019-05-25T05:04:40.973Z,5188.00
2019-05-25T05:05:40.864Z,5240.00
2019-05-25T05:06:40.919Z,5292.00
2019-05-25T05:07:40.864Z,5328.00
2019-05-25T05:08:40.846Z,5344.00
2019-05-25T05:09:40.816Z,5348.00
2019-05-25T05:10:40.796Z,5360.00
2019-05-25T05:11:40.769Z,5412.00
2019-05-25T05:12:40.817Z,5492.00
2019-05-25T05:13:40.778Z,5572.00
2019-05-25T05:14:40.858Z,5696.00
2019-05-25T05:15:40.829Z,5928.00
2019-05-25T05:16:40.754Z,6048.00
2019-05-25T05:17:40.763Z,6092.00
2019-05-25T05:18:40.733Z,6088.00
2019-05-25T05:19:41.821Z,6056.00
2019-05-25T05:20:40.702Z,6028.00
2019-05-25T05:21:40.732Z,6020.00
2019-05-25T05:22:40.693Z,6024.00
2019-05-25T05:23:40.729Z,6008.00
2019-05-25T05:24:40.644Z,5980.00
2019-05-25T05:25:40.704Z,5952.00
2019-05-25T05:26:54.759Z,5984.00
2019-05-25T05:27:41.606Z,6100.00
2019-05-25T05:28:40.656Z,6224.00
2019-05-25T05:29:40.597Z,6356.00
2019-05-25T05:30:40.648Z,6484.00
2019-05-25T05:31:40.618Z,6596.00
2019-05-25T05:32:40.559Z,6788.00
2019-05-25T05:33:40.590Z,6936.00
2019-05-25T05:34:40.541Z,7060.00
2019-05-25T05:35:41.610Z,7140.00
2019-05-25T05:36:40.521Z,7184.00
2019-05-25T05:37:40.531Z,7212.00
2019-05-25T05:38:40.512Z,7244.00
2019-05-25T05:39:41.595Z,7300.00
2019-05-25T05:40:40.478Z,7400.00
2019-05-25T05:41:41.524Z,7552.00
2019-05-25T05:42:40.465Z,7688.00
2019-05-25T05:43:40.445Z,7832.00
2019-05-25T05:44:40.505Z,7996.00
2019-05-25T05:45:40.407Z,8172.00
2019-05-25T05:46:40.442Z,8348.00
2019-05-25T05:47:41.444Z,8496.00
2019-05-25T05:48:40.389Z,8632.00
2019-05-25T05:49:40.448Z,8756.00
2019-05-25T05:50:40.359Z,8880.00
2019-05-25T05:51:40.379Z,8984.00
2019-05-25T05:52:40.342Z,9084.00
2019-05-25T05:53:40.360Z,9136.00
2019-05-25T05:54:40.323Z,9176.00
2019-05-25T05:55:41.381Z,9552.00
2019-05-25T05:56:40.302Z,10964.00
2019-05-25T05:57:41.324Z,12884.00
2019-05-25T05:58:40.294Z,13592.00
2019-05-25T05:59:40.324Z,13468.00
2019-05-25T06:00:40.258Z,13536.00
2019-05-25T06:01:40.255Z,13360.00
2019-05-25T06:02:40.228Z,12568.00
2019-05-25T06:03:40.226Z,12908.00
2019-05-25T06:04:40.203Z,12552.00
2019-05-25T06:05:40.238Z,12388.00
2019-05-25T06:06:40.177Z,12376.00
2019-05-25T06:07:40.267Z,12492.00
2019-05-25T06:08:40.168Z,12088.00
2019-05-25T06:09:40.208Z,10952.00
2019-05-25T06:10:40.140Z,10916.00
2019-05-25T06:11:40.151Z,10896.00
2019-05-25T06:12:40.120Z,11452.00
2019-05-25T06:13:40.231Z,11976.00
2019-05-25T06:14:40.151Z,12476.00
2019-05-25T06:15:40.082Z,12972.00
2019-05-25T06:16:40.083Z,13388.00
2019-05-25T06:17:40.053Z,12912.00
2019-05-25T06:18:40.177Z,11856.00
2019-05-25T06:19:40.085Z,12912.00
2019-05-25T06:20:40.025Z,13108.00
2019-05-25T06:21:40.026Z,13660.00
2019-05-25T06:22:40.007Z,13980.00
2019-05-25T06:23:40.106Z,13764.00
2019-05-25T06:24:41.061Z,14180.00
2019-05-25T06:25:39.971Z,15072.00
2019-05-25T06:26:40.178Z,16288.00
2019-05-25T06:27:39.949Z,17024.00
2019-05-25T06:28:40.112Z,16736.00
2019-05-25T06:29:40.000Z,17632.00
2019-05-25T06:30:39.941Z,17472.00
2019-05-25T06:31:39.912Z,17504.00
2019-05-25T06:32:39.982Z,17440.00
2019-05-25T06:33:39.872Z,17120.00
2019-05-25T06:34:39.957Z,17088.00
2019-05-25T06:35:39.864Z,17280.00
2019-05-25T06:36:39.944Z,17888.00
2019-05-25T06:37:39.835Z,18016.00
2019-05-25T06:38:39.885Z,18624.00
2019-05-25T06:39:39.836Z,19232.00
2019-05-25T06:40:39.910Z,19616.00
2019-05-25T06:41:39.790Z,19936.00
2019-05-25T06:42:39.858Z,20224.00
2019-05-25T06:43:39.768Z,20352.00
2019-05-25T06:44:39.849Z,20000.00
2019-05-25T06:45:39.752Z,19616.00
2019-05-25T06:46:39.962Z,20640.00
2019-05-25T06:47:39.733Z,19712.00
2019-05-25T06:48:39.773Z,21472.00
2019-05-25T06:49:39.723Z,22848.00
2019-05-25T06:50:39.706Z,23072.00
2019-05-25T06:51:39.679Z,23040.00
2019-05-25T06:52:39.745Z,23104.00
2019-05-25T06:53:39.657Z,23104.00
2019-05-25T06:54:39.728Z,23200.00
2019-05-25T06:55:39.627Z,22816.00
2019-05-25T06:56:39.616Z,22016.00
2019-05-25T06:57:43.613Z,22176.00
2019-05-25T06:58:39.647Z,21952.00
2019-05-25T06:59:39.600Z,22688.00
2019-05-25T07:00:39.689Z,22592.00
2019-05-25T07:01:39.659Z,21984.00
2019-05-25T07:02:39.561Z,22272.00
2019-05-25T07:03:39.602Z,23200.00
2019-05-25T07:04:39.561Z,29248.00
2019-05-25T07:05:39.662Z,33248.00
2019-05-25T07:06:39.512Z,39776.00
2019-05-25T07:07:39.563Z,50848.00
2019-05-25T07:08:39.485Z,53376.00
2019-05-25T07:09:40.565Z,53984.00
2019-05-25T07:10:39.465Z,53152.00
2019-05-25T07:11:39.546Z,54048.00
2019-05-25T07:12:39.446Z,55136.00
2019-05-25T07:13:39.479Z,55744.00
2019-05-25T07:14:39.437Z,55936.00
2019-05-25T07:15:39.521Z,53760.00
2019-05-25T07:16:39.409Z,56448.00
2019-05-25T07:17:39.399Z,55968.00
2019-05-25T07:18:39.390Z,57952.00
2019-05-25T07:19:39.435Z,57568.00
2019-05-25T07:20:39.365Z,55360.00
2019-05-25T07:21:39.422Z,57536.00
2019-05-25T07:22:39.383Z,57344.00
2019-05-25T07:23:39.333Z,56032.00
2019-05-25T07:24:39.364Z,56896.00
2019-05-25T07:25:39.298Z,56128.00
2019-05-25T07:26:39.367Z,46176.00
2019-05-25T07:27:39.278Z,58624.00
2019-05-25T07:28:45.846Z,59936.00
2019-05-25T07:29:39.287Z,58624.00
2019-05-25T07:33:03.813Z,59424.00
2019-05-25T07:34:03.802Z,60288.00
2019-05-25T07:35:13.656Z,61088.00
2019-05-25T07:36:07.599Z,61888.00
2019-05-25T07:37:03.904Z,62400.00
2019-05-25T07:38:03.753Z,62848.00
2019-05-25T07:39:03.733Z,63840.00
2019-05-25T07:40:04.874Z,65376.00
2019-05-25T07:41:03.716Z,65504.00
2019-05-25T07:44:14.606Z,67936.00
2019-05-25T07:45:14.618Z,67424.00
2019-05-25T07:46:17.340Z,67680.00
2019-05-25T07:47:14.578Z,68576.00
2019-05-25T07:48:21.369Z,70528.00
2019-05-25T07:49:14.560Z,71968.00
2019-05-25T07:50:35.533Z,72864.00
2019-05-25T07:51:14.520Z,72960.00
2019-05-25T07:52:23.373Z,73856.00
2019-05-25T07:53:14.508Z,73632.00
2019-05-25T07:55:40.616Z,75456.00
2019-05-25T07:56:29.585Z,76160.00
2019-05-25T07:57:36.625Z,75744.00
2019-05-25T07:58:29.566Z,76448.00
2019-05-25T07:59:44.648Z,71296.00
2019-05-25T08:00:29.557Z,76384.00
2019-05-25T08:01:46.628Z,76288.00
2019-05-25T08:02:29.529Z,75264.00
2019-05-25T08:03:29.520Z,73696.00
2019-05-25T08:04:57.480Z,75360.00
2019-05-25T08:05:29.511Z,74912.00
2019-05-25T08:06:29.508Z,74880.00
2019-05-25T08:08:05.673Z,75264.00
2019-05-25T08:08:29.452Z,75776.00
2019-05-25T08:09:29.463Z,75648.00
2019-05-25T08:10:45.554Z,76480.00
2019-05-25T08:11:29.416Z,74336.00
2019-05-25T08:12:38.087Z,75104.00
2019-05-25T08:13:29.396Z,76832.00
2019-05-25T08:14:59.107Z,75520.00
2019-05-25T08:15:29.418Z,75872.00
2019-05-25T08:16:50.549Z,76352.00
2019-05-25T08:17:29.370Z,76512.00
2019-05-25T08:18:51.489Z,77984.00
2019-05-25T08:19:29.330Z,80128.00
2019-05-25T08:20:39.091Z,81376.00
2019-05-25T08:21:29.315Z,82272.00
2019-05-25T08:22:58.146Z,83808.00
2019-05-25T08:23:29.284Z,84672.00
2019-05-25T08:24:29.279Z,83712.00
2019-05-25T08:25:50.495Z,83840.00
2019-05-25T08:26:29.258Z,84352.00
2019-05-25T08:27:29.256Z,84960.00
2019-05-25T08:30:18.827Z,87616.00
2019-05-25T08:30:49.518Z,85504.00
2019-05-25T08:31:58.349Z,79328.00
2019-05-25T08:32:49.453Z,79680.00
2019-05-25T08:34:27.353Z,86592.00
2019-05-25T08:34:49.423Z,85920.00
2019-05-25T08:35:49.434Z,79456.00
2019-05-25T08:38:06.214Z,91744.00
2019-05-25T08:39:06.214Z,97408.00
2019-05-25T08:40:27.356Z,83584.00
2019-05-25T08:41:06.195Z,77312.00
2019-05-25T08:42:06.224Z,88448.00
2019-05-25T08:43:06.168Z,86496.00
2019-05-25T08:44:06.159Z,91040.00
2019-05-25T08:45:34.065Z,80320.00
2019-05-25T08:46:06.221Z,69312.00
2019-05-25T08:47:06.115Z,24736.00
2019-05-25T08:48:44.020Z,37344.00
2019-05-25T08:49:06.094Z,40032.00
2019-05-25T08:50:06.127Z,22400.00
2019-05-25T08:51:08.222Z,37280.00
2019-05-25T08:52:06.058Z,52928.00
2019-05-25T08:53:14.033Z,64032.00
2019-05-25T08:54:06.035Z,71392.00
2019-05-25T08:55:06.205Z,59392.00
2019-05-25T08:56:06.036Z,78656.00
2019-05-25T08:57:17.961Z,52160.00
2019-05-25T08:58:06.011Z,54400.00
2019-05-25T08:59:05.988Z,37600.00
2019-05-25T09:00:05.978Z,15316.00
2019-05-25T09:01:10.561Z,15132.00
2019-05-25T09:02:05.960Z,15256.00
2019-05-25T09:03:14.021Z,14236.00
2019-05-25T09:04:05.926Z,12600.00
2019-05-25T09:05:13.041Z,11448.00
2019-05-25T09:06:05.904Z,10968.00
2019-05-25T09:07:26.883Z,10684.00
2019-05-25T09:08:05.885Z,10248.00
2019-05-25T09:09:20.995Z,10240.00
2019-05-25T09:10:05.866Z,14464.00
2019-05-25T09:13:22.047Z,113696.00
2019-05-25T09:14:09.988Z,70976.00
2019-05-25T09:15:31.040Z,107168.00
2019-05-25T09:16:09.949Z,99712.00
2019-05-25T09:17:09.963Z,47040.00
2019-05-25T09:20:28.408Z,111072.00
2019-05-25T09:21:07.403Z,106240.00
2019-05-25T09:22:09.575Z,100544.00
2019-05-25T09:23:07.383Z,105088.00
2019-05-25T09:25:34.545Z,100544.00
2019-05-25T09:26:31.336Z,109216.00
2019-05-25T09:27:30.166Z,105472.00
2019-05-25T09:29:06.028Z,102336.00
2019-05-25T09:29:30.138Z,111744.00
2019-05-25T09:30:30.129Z,112544.00
2019-05-25T09:31:30.119Z,105984.00
2019-05-25T09:32:30.159Z,101600.00
2019-05-25T09:33:46.011Z,81280.00
2019-05-25T09:34:30.071Z,71840.00
2019-05-25T09:35:46.972Z,56256.00
2019-05-25T09:36:30.073Z,35936.00
2019-05-25T09:37:30.043Z,25920.00
2019-05-25T09:38:38.994Z,17984.00
2019-05-25T09:39:30.025Z,15052.00
2019-05-25T09:40:38.015Z,16064.00
2019-05-25T09:41:30.057Z,16608.00
2019-05-25T09:42:39.425Z,13828.00
2019-05-25T09:43:29.988Z,13292.00
2019-05-25T09:44:58.981Z,13112.00
2019-05-25T09:45:29.953Z,12148.00
2019-05-25T09:47:38.791Z,11104.00
2019-05-25T09:48:46.552Z,10460.00
2019-05-25T09:49:38.752Z,9712.00
2019-05-25T09:50:59.900Z,10184.00
2019-05-25T09:51:38.734Z,10240.00
2019-05-25T09:52:38.744Z,10560.00
2019-05-25T09:53:38.714Z,11472.00
2019-05-25T09:54:38.715Z,11744.00
2019-05-25T09:55:46.535Z,9340.00
2019-05-25T09:56:38.686Z,6488.00
2019-05-25T09:57:43.037Z,4856.00
2019-05-25T09:58:38.659Z,4276.00
2019-05-25T10:02:59.855Z,6644.00
2019-05-25T10:03:29.791Z,7608.00
2019-05-25T10:04:29.781Z,8244.00
2019-05-25T10:05:29.943Z,8392.00
2019-05-25T10:06:29.753Z,8060.00
2019-05-25T10:07:29.924Z,7260.00
2019-05-25T10:08:29.734Z,6816.00
2019-05-25T10:09:29.734Z,6584.00
2019-05-25T10:10:29.731Z,6768.00
2019-05-25T10:11:38.447Z,6712.00
2019-05-25T10:12:29.720Z,6460.00
2019-05-25T10:13:36.437Z,5964.00
2019-05-25T10:14:45.449Z,5444.00
2019-05-25T10:15:29.658Z,5204.00
2019-05-25T10:16:46.360Z,5212.00
2019-05-25T10:17:29.650Z,5324.00
2019-05-25T10:19:07.383Z,5440.00
2019-05-25T10:19:29.611Z,5432.00
2019-05-25T10:20:45.412Z,5280.00
2019-05-25T10:21:29.609Z,5084.00
2019-05-25T10:22:53.886Z,4944.00
2019-05-25T10:23:29.575Z,4812.00
2019-05-25T10:27:25.737Z,5000.00
2019-05-25T10:32:23.980Z,7048.00
2019-05-25T10:33:22.781Z,7636.00
2019-05-25T10:34:37.594Z,8504.00
2019-05-25T10:35:22.769Z,9296.00
2019-05-25T10:36:22.753Z,9880.00
2019-05-25T10:37:22.764Z,11136.00
2019-05-25T10:38:43.907Z,12024.00
2019-05-25T10:39:22.728Z,11912.00
2019-05-25T10:40:23.980Z,10936.00
2019-05-25T10:41:22.707Z,10368.00
2019-05-25T10:42:22.817Z,9868.00
2019-05-25T10:43:22.693Z,9292.00
2019-05-25T10:44:38.598Z,8836.00
2019-05-25T10:45:22.648Z,8424.00
2019-05-25T10:46:50.561Z,8124.00
2019-05-25T10:47:22.629Z,7676.00
2019-05-25T10:48:22.630Z,7024.00
2019-05-25T10:49:31.811Z,6004.00
2019-05-25T10:50:22.592Z,4984.00
2019-05-25T10:51:50.562Z,4024.00
2019-05-25T10:52:22.573Z,3400.00
2019-05-25T10:53:27.097Z,3212.00
2019-05-25T10:54:22.564Z,3316.00
2019-05-25T10:55:43.676Z,3432.00
2019-05-25T10:56:22.537Z,3788.00
2019-05-25T10:57:22.627Z,4176.00
2019-05-25T10:58:22.540Z,4616.00
2019-05-25T10:59:22.567Z,5016.00
2019-05-25T11:00:22.489Z,5908.00
2019-05-25T11:01:22.487Z,6368.00
2019-05-25T11:02:22.461Z,6144.00
2019-05-25T11:03:22.461Z,5820.00
2019-05-25T11:04:22.451Z,5444.00
2019-05-25T11:05:22.472Z,4940.00
2019-05-25T11:06:22.413Z,4444.00
2019-05-25T11:07:23.433Z,3948.00
2019-05-25T11:08:22.534Z,3468.00
2019-05-25T11:09:22.425Z,3204.00
2019-05-25T11:10:22.436Z,3172.00
2019-05-25T11:11:22.376Z,3380.00
2019-05-25T11:12:25.881Z,4040.00
2019-05-25T11:13:22.468Z,5280.00
2019-05-25T11:14:22.328Z,6596.00
2019-05-25T11:15:22.358Z,7684.00
2019-05-25T11:16:22.311Z,8348.00
2019-05-25T11:17:22.400Z,8652.00
2019-05-25T11:18:22.300Z,8608.00
2019-05-25T11:19:24.325Z,8492.00
2019-05-25T11:20:22.264Z,8368.00
2019-05-25T11:21:22.375Z,8672.00
2019-05-25T11:22:22.253Z,9356.00
2019-05-25T11:23:22.357Z,9912.00
2019-05-25T11:24:22.226Z,11068.00
2019-05-25T11:25:22.247Z,12136.00
2019-05-25T11:26:22.207Z,11696.00
2019-05-25T11:27:22.275Z,10372.00
2019-05-25T11:28:22.176Z,9308.00
2019-05-25T11:29:22.197Z,8736.00
2019-05-25T11:30:22.178Z,7744.00
2019-05-25T11:31:22.138Z,6764.00
2019-05-25T11:32:22.219Z,6164.00
2019-05-25T11:33:22.120Z,5316.00
2019-05-25T11:34:22.144Z,4924.00
2019-05-25T11:35:22.122Z,4484.00
2019-05-25T11:36:22.095Z,4340.00
2019-05-25T11:37:22.163Z,4428.00
2019-05-25T11:38:22.073Z,5000.00
2019-05-25T11:39:22.083Z,6012.00
2019-05-25T11:40:22.048Z,7184.00
2019-05-25T11:41:22.139Z,7352.00
2019-05-25T11:42:22.025Z,6308.00
2019-05-25T11:43:22.066Z,4800.00
2019-05-25T11:44:22.017Z,3924.00
2019-05-25T11:45:21.988Z,4444.00
2019-05-25T11:46:22.068Z,5636.00
2019-05-25T11:47:21.958Z,7244.00
2019-05-25T11:48:22.015Z,9292.00
2019-05-25T11:49:22.979Z,11064.00
2019-05-25T11:50:22.070Z,12584.00
2019-05-25T11:51:22.014Z,13496.00
2019-05-25T11:52:21.923Z,13464.00
2019-05-25T11:53:21.955Z,12444.00
2019-05-25T11:54:21.933Z,11540.00
2019-05-25T11:55:21.890Z,10328.00
2019-05-25T11:56:21.868Z,10444.00
2019-05-25T11:57:21.935Z,10552.00
2019-05-25T11:58:22.010Z,9952.00
2019-05-25T11:59:21.896Z,8364.00
2019-05-25T12:00:25.318Z,7420.00
2019-05-25T12:01:21.898Z,7356.00
2019-05-25T12:02:21.791Z,7596.00
2019-05-25T12:03:21.829Z,8712.00
2019-05-25T12:04:21.790Z,9460.00
2019-05-25T12:05:22.799Z,9380.00
2019-05-25T12:06:21.841Z,9424.00
2019-05-25T12:07:21.737Z,9464.00
2019-05-25T12:08:21.776Z,9728.00
2019-05-25T12:09:21.743Z,9544.00
2019-05-25T12:10:21.814Z,9504.00
2019-05-25T12:11:21.704Z,9656.00
2019-05-25T12:12:21.748Z,9308.00
2019-05-25T12:13:21.666Z,8216.00
2019-05-25T12:14:21.727Z,6804.00
2019-05-25T12:15:21.651Z,5624.00
2019-05-25T12:16:21.638Z,4756.00
2019-05-25T12:17:21.631Z,3940.00
2019-05-25T12:18:21.659Z,3408.00
2019-05-25T12:19:22.416Z,3128.00
2019-05-25T12:20:21.711Z,3020.00
2019-05-25T12:21:21.582Z,2816.00
2019-05-25T12:22:21.632Z,2712.00
2019-05-25T12:23:21.573Z,2608.00
2019-05-25T12:24:21.613Z,2636.00
2019-05-25T12:25:21.550Z,3036.00
2019-05-25T12:26:21.605Z,3752.00
2019-05-25T12:27:21.535Z,4284.00
2019-05-25T12:28:21.556Z,4436.00
2019-05-25T12:29:21.506Z,4120.00
2019-05-25T12:30:21.579Z,3572.00
2019-05-25T12:31:21.467Z,3172.00
2019-05-25T12:32:21.458Z,3036.00
2019-05-25T12:33:21.479Z,2844.00
2019-05-25T12:34:21.530Z,2684.00
2019-05-25T12:35:21.531Z,2952.00
2019-05-25T12:36:21.410Z,3480.00
2019-05-25T12:37:21.401Z,4280.00
2019-05-25T12:38:22.442Z,5208.00
2019-05-25T12:39:21.709Z,6116.00
2019-05-25T12:40:21.463Z,7084.00
2019-05-25T12:41:21.370Z,7892.00